createdAt,value
2023-03-06T00:00:18.976Z,3.25
2023-03-06T00:01:51.866Z,4.15
2023-03-06T00:03:24.214Z,3.58
2023-03-06T00:04:56.360Z,2.78
2023-03-06T00:06:28.097Z,3.35
2023-03-06T00:07:59.819Z,2.72
2023-03-06T00:09:31.512Z,2.95
2023-03-06T00:11:03.254Z,3.78
2023-03-06T00:12:35.020Z,3.55
2023-03-06T00:14:06.786Z,2.90
2023-03-06T00:15:38.719Z,2.83
2023-03-06T00:17:10.617Z,2.47
2023-03-06T00:18:44.122Z,2.92
2023-03-06T00:20:16.246Z,3.28
2023-03-06T00:21:48.384Z,2.92
2023-03-06T00:23:20.662Z,2.65
2023-03-06T00:24:54.261Z,3.53
2023-03-06T00:26:25.986Z,3.50
2023-03-06T00:27:57.979Z,4.07
2023-03-06T00:29:30.062Z,3.40
2023-03-06T00:31:02.425Z,4.70
2023-03-06T00:32:34.311Z,3.55
2023-03-06T00:34:07.011Z,3.38
2023-03-06T00:35:39.925Z,3.85
2023-03-06T00:37:11.675Z,4.80
2023-03-06T00:38:43.411Z,4.68
2023-03-06T00:40:20.799Z,2.80
2023-03-06T00:41:52.736Z,3.33
2023-03-06T00:43:24.457Z,3.78
2023-03-06T00:44:56.381Z,2.78
2023-03-06T00:46:28.147Z,3.40
2023-03-06T00:48:00.867Z,3.85
2023-03-06T00:49:32.600Z,3.38
2023-03-06T00:51:04.724Z,4.07
2023-03-06T00:52:36.654Z,3.05
2023-03-06T00:54:08.409Z,3.05
2023-03-06T00:55:40.185Z,3.55
2023-03-06T00:57:11.957Z,3.65
2023-03-06T00:58:43.683Z,3.75
2023-03-06T01:00:15.781Z,3.42
2023-03-06T01:01:47.567Z,4.00
2023-03-06T01:03:19.302Z,3.28
2023-03-06T01:04:51.366Z,3.95
2023-03-06T01:06:23.803Z,3.63
2023-03-06T01:07:55.570Z,2.92
2023-03-06T01:09:27.308Z,4.03
2023-03-06T01:10:59.054Z,4.28
2023-03-06T01:12:30.816Z,4.10
2023-03-06T01:14:02.934Z,3.42
2023-03-06T01:15:34.676Z,3.55
2023-03-06T01:17:06.556Z,4.13
2023-03-06T01:18:38.415Z,3.67
2023-03-06T01:20:14.405Z,3.85
2023-03-06T01:21:46.995Z,4.78
2023-03-06T01:23:18.905Z,3.60
2023-03-06T01:24:50.623Z,3.92
2023-03-06T01:26:22.723Z,4.13
2023-03-06T01:27:54.456Z,4.82
2023-03-06T01:29:26.608Z,3.63
2023-03-06T01:30:58.371Z,4.70
2023-03-06T01:32:31.675Z,4.65
2023-03-06T01:34:03.428Z,3.72
2023-03-06T01:35:35.188Z,3.67
2023-03-06T01:37:07.059Z,4.90
2023-03-06T01:38:39.031Z,4.93
2023-03-06T01:40:12.606Z,3.03
2023-03-06T01:41:45.075Z,3.92
2023-03-06T01:43:29.147Z,5.15
2023-03-06T01:45:27.407Z,5.35
2023-03-06T01:47:02.386Z,5.90
2023-03-06T01:48:34.228Z,7.95
2023-03-06T01:50:09.665Z,9.18
2023-03-06T01:51:47.782Z,10.63
2023-03-06T01:53:20.831Z,11.82
2023-03-06T01:54:55.386Z,12.05
2023-03-06T01:56:29.205Z,15.82
2023-03-06T01:58:05.357Z,16.77
2023-03-06T01:59:38.284Z,17.73
2023-03-06T02:01:14.579Z,19.60
2023-03-06T02:03:09.245Z,17.90
2023-03-06T02:04:44.298Z,16.23
2023-03-06T02:06:19.853Z,14.75
2023-03-06T02:07:51.999Z,15.02
2023-03-06T02:09:24.092Z,13.07
2023-03-06T02:11:11.148Z,10.70
2023-03-06T02:12:46.316Z,10.80
2023-03-06T02:14:18.406Z,8.68
2023-03-06T02:15:50.179Z,8.50
2023-03-06T02:17:22.556Z,7.03
2023-03-06T02:18:55.327Z,7.70
2023-03-06T02:20:39.591Z,6.80
2023-03-06T02:22:11.401Z,6.70
2023-03-06T02:24:07.700Z,7.13
2023-03-06T02:25:42.589Z,6.03
2023-03-06T02:27:16.012Z,5.60
2023-03-06T02:28:47.945Z,5.88
2023-03-06T02:30:20.104Z,5.30
2023-03-06T02:31:51.911Z,5.68
2023-03-06T02:33:26.995Z,4.68
2023-03-06T02:34:58.878Z,5.10
2023-03-06T02:36:33.395Z,6.28
2023-03-06T02:38:09.557Z,5.22
2023-03-06T02:39:47.384Z,4.68
2023-03-06T02:41:19.286Z,4.63
2023-03-06T02:42:56.626Z,5.72
2023-03-06T02:44:29.594Z,5.35
2023-03-06T02:46:01.427Z,5.60
2023-03-06T02:47:33.265Z,5.97
2023-03-06T02:49:05.457Z,5.75
2023-03-06T02:50:37.168Z,5.97
2023-03-06T02:52:09.344Z,6.63
2023-03-06T02:53:41.177Z,5.18
2023-03-06T02:55:12.937Z,5.88
2023-03-06T02:56:46.147Z,5.40
2023-03-06T02:58:19.861Z,5.30
2023-03-06T02:59:51.758Z,5.55
2023-03-06T03:01:23.776Z,5.70
2023-03-06T03:02:56.034Z,5.55
2023-03-06T03:04:27.829Z,6.10
2023-03-06T03:06:00.832Z,5.35
2023-03-06T03:07:36.669Z,6.53
2023-03-06T03:09:08.459Z,6.90
2023-03-06T03:10:40.489Z,7.68
2023-03-06T03:12:12.360Z,6.68
2023-03-06T03:13:44.149Z,5.90
2023-03-06T03:15:21.671Z,5.97
2023-03-06T03:16:54.213Z,6.22
2023-03-06T03:18:26.269Z,5.50
2023-03-06T03:19:58.808Z,6.95
2023-03-06T03:21:30.561Z,6.22
2023-03-06T03:23:02.344Z,6.85
2023-03-06T03:24:34.312Z,5.43
2023-03-06T03:26:08.271Z,6.43
2023-03-06T03:27:41.687Z,5.82
2023-03-06T03:29:13.997Z,7.43
2023-03-06T03:30:46.059Z,6.30
2023-03-06T03:32:18.395Z,6.13
2023-03-06T03:33:50.524Z,6.00
2023-03-06T03:35:23.943Z,8.70
2023-03-06T03:36:55.710Z,7.57
2023-03-06T03:38:28.633Z,7.45
2023-03-06T03:40:01.289Z,7.65
2023-03-06T03:41:34.732Z,6.70
2023-03-06T03:43:09.633Z,6.18
2023-03-06T03:44:41.926Z,6.45
2023-03-06T03:46:14.056Z,6.80
2023-03-06T03:47:46.253Z,7.00
2023-03-06T03:49:18.723Z,5.85
2023-03-06T03:50:50.456Z,6.25
2023-03-06T03:52:22.461Z,6.10
2023-03-06T03:53:56.825Z,8.10
2023-03-06T03:55:30.405Z,6.95
2023-03-06T03:57:02.596Z,7.40
2023-03-06T03:58:38.467Z,7.80
2023-03-06T04:00:14.925Z,8.23
2023-03-06T04:01:56.185Z,7.60
2023-03-06T04:03:28.777Z,7.30
2023-03-06T04:05:00.587Z,8.00
2023-03-06T04:06:32.462Z,8.02
2023-03-06T04:08:05.607Z,7.75
2023-03-06T04:09:38.388Z,7.45
2023-03-06T04:11:10.334Z,7.90
2023-03-06T04:12:42.109Z,7.78
2023-03-06T04:14:15.736Z,6.78
2023-03-06T04:15:49.394Z,6.68
2023-03-06T04:17:21.227Z,8.88
2023-03-06T04:18:53.265Z,7.55
2023-03-06T04:20:26.205Z,7.95
2023-03-06T04:21:57.994Z,6.50
2023-03-06T04:23:29.994Z,7.75
2023-03-06T04:25:01.756Z,7.13
2023-03-06T04:26:33.590Z,6.95
2023-03-06T04:28:05.821Z,8.20
2023-03-06T04:29:37.589Z,8.23
2023-03-06T04:31:12.160Z,7.95
2023-03-06T04:32:44.229Z,7.32
2023-03-06T04:34:15.987Z,9.02
2023-03-06T04:35:48.844Z,7.75
2023-03-06T04:37:27.174Z,7.38
2023-03-06T04:39:00.706Z,6.80
2023-03-06T04:40:34.470Z,9.00
2023-03-06T04:42:06.427Z,7.55
2023-03-06T04:43:39.646Z,8.27
2023-03-06T04:45:11.614Z,8.27
2023-03-06T04:46:43.358Z,8.02
2023-03-06T04:48:18.048Z,7.95
2023-03-06T04:49:49.804Z,7.47
2023-03-06T04:51:21.897Z,8.35
2023-03-06T04:52:53.748Z,7.78
2023-03-06T04:54:25.480Z,9.82
2023-03-06T04:55:57.228Z,7.68
2023-03-06T04:57:28.934Z,9.02
2023-03-06T04:59:00.699Z,7.05
2023-03-06T05:00:32.474Z,7.45
2023-03-06T05:02:04.403Z,9.18
2023-03-06T05:03:36.349Z,8.63
2023-03-06T05:05:08.455Z,9.90
2023-03-06T05:06:40.794Z,9.43
2023-03-06T05:08:16.698Z,9.23
2023-03-06T05:09:48.421Z,7.68
2023-03-06T05:11:20.162Z,9.68
2023-03-06T05:12:51.917Z,9.02
2023-03-06T05:14:23.642Z,8.65
2023-03-06T05:15:55.495Z,9.75
2023-03-06T05:17:27.254Z,8.90
2023-03-06T05:18:58.975Z,8.02
2023-03-06T05:20:30.696Z,8.23
2023-03-06T05:22:02.567Z,6.85
2023-03-06T05:23:38.690Z,8.18
2023-03-06T05:25:10.893Z,8.55
2023-03-06T05:26:43.186Z,7.72
2023-03-06T05:28:15.054Z,8.50
2023-03-06T05:29:46.822Z,7.40
2023-03-06T05:31:18.622Z,8.75
2023-03-06T05:32:50.893Z,8.55
2023-03-06T05:34:22.781Z,8.18
2023-03-06T05:36:01.211Z,6.82
2023-03-06T05:37:35.992Z,6.50
2023-03-06T05:39:08.348Z,6.82
2023-03-06T05:40:41.953Z,7.03
2023-03-06T05:42:14.028Z,10.57
2023-03-06T05:43:45.773Z,9.73
2023-03-06T05:45:17.624Z,9.20
2023-03-06T05:46:50.225Z,9.32
2023-03-06T05:48:21.942Z,8.95
2023-03-06T05:49:53.664Z,8.52
2023-03-06T05:51:26.679Z,7.45
2023-03-06T05:52:58.468Z,7.22
2023-03-06T05:54:31.253Z,8.38
2023-03-06T05:56:06.069Z,7.60
2023-03-06T05:57:37.799Z,9.55
2023-03-06T05:59:09.540Z,10.63
2023-03-06T06:00:41.248Z,8.60
2023-03-06T06:02:12.974Z,7.80
2023-03-06T06:03:45.545Z,8.95
2023-03-06T06:05:17.486Z,9.45
2023-03-06T06:06:57.623Z,8.40
2023-03-06T06:08:29.347Z,9.90
2023-03-06T06:10:03.635Z,8.52
2023-03-06T06:11:35.651Z,13.95
2023-03-06T06:13:07.869Z,14.75
2023-03-06T06:14:39.806Z,13.02
2023-03-06T06:16:15.992Z,13.55
2023-03-06T06:17:47.863Z,12.30
2023-03-06T06:19:20.418Z,10.43
2023-03-06T06:20:52.832Z,12.95
2023-03-06T06:22:25.640Z,11.00
2023-03-06T06:23:57.372Z,9.07
2023-03-06T06:25:29.086Z,10.32
2023-03-06T06:27:03.732Z,10.02
2023-03-06T06:28:36.466Z,10.30
2023-03-06T06:30:10.804Z,10.30
2023-03-06T06:31:42.909Z,8.63
2023-03-06T06:33:14.630Z,9.88
2023-03-06T06:34:46.361Z,9.32
2023-03-06T06:36:20.339Z,9.02
2023-03-06T06:37:52.146Z,8.27
2023-03-06T06:39:24.511Z,7.82
2023-03-06T06:41:30.606Z,9.35
2023-03-06T06:42:47.958Z,10.35
2023-03-06T06:44:20.412Z,8.05
2023-03-06T06:45:53.068Z,9.02
2023-03-06T06:47:26.263Z,9.93
2023-03-06T06:49:00.199Z,8.30
2023-03-06T06:50:32.017Z,11.70
2023-03-06T06:52:05.061Z,11.05
2023-03-06T06:53:36.786Z,9.38
2023-03-06T06:55:09.584Z,8.45
2023-03-06T06:56:41.551Z,9.13
2023-03-06T06:58:14.205Z,10.75
2023-03-06T06:59:45.971Z,10.32
2023-03-06T07:01:17.785Z,8.77
2023-03-06T07:02:51.281Z,9.85
2023-03-06T07:04:23.279Z,10.07
2023-03-06T07:05:56.157Z,8.55
2023-03-06T07:07:27.947Z,8.80
2023-03-06T07:08:59.655Z,9.00
2023-03-06T07:10:31.643Z,8.98
2023-03-06T07:12:03.386Z,12.90
2023-03-06T07:13:35.223Z,11.70
2023-03-06T07:15:08.202Z,10.20
2023-03-06T07:16:40.039Z,11.07
2023-03-06T07:18:12.267Z,11.88
2023-03-06T07:19:43.991Z,10.25
2023-03-06T07:21:16.154Z,11.43
2023-03-06T07:22:51.756Z,10.00
2023-03-06T07:24:23.744Z,9.63
2023-03-06T07:25:55.698Z,10.20
2023-03-06T07:27:27.773Z,9.05
2023-03-06T07:28:59.698Z,8.15
2023-03-06T07:30:31.802Z,10.45
2023-03-06T07:32:03.591Z,9.15
2023-03-06T07:33:35.776Z,9.68
2023-03-06T07:35:19.665Z,10.23
2023-03-06T07:36:52.034Z,10.55
2023-03-06T07:38:23.770Z,10.35
2023-03-06T07:39:55.510Z,9.00
2023-03-06T07:41:27.260Z,9.32
2023-03-06T07:43:16.810Z,9.43
2023-03-06T07:44:54.179Z,8.98
2023-03-06T07:46:26.013Z,8.63
2023-03-06T07:47:57.854Z,10.77
2023-03-06T07:49:29.690Z,10.80
2023-03-06T07:51:06.899Z,10.57
2023-03-06T07:52:38.770Z,8.70
2023-03-06T07:54:10.577Z,7.90
2023-03-06T07:55:42.387Z,10.07
2023-03-06T07:57:14.093Z,8.68
2023-03-06T07:58:47.496Z,10.00
2023-03-06T08:00:19.614Z,10.00
2023-03-06T08:01:51.370Z,8.93
2023-03-06T08:03:23.084Z,8.55
2023-03-06T08:04:55.883Z,10.50
2023-03-06T08:06:28.478Z,8.32
2023-03-06T08:08:00.244Z,8.68
2023-03-06T08:09:31.989Z,10.00
2023-03-06T08:11:03.967Z,8.65
2023-03-06T08:12:35.705Z,9.77
2023-03-06T08:14:07.426Z,10.13
2023-03-06T08:15:39.246Z,9.10
2023-03-06T08:17:11.025Z,10.05
2023-03-06T08:18:45.136Z,9.23
2023-03-06T08:20:18.687Z,8.45
2023-03-06T08:21:50.438Z,7.90
2023-03-06T08:23:22.175Z,8.65
2023-03-06T08:24:56.830Z,11.02
2023-03-06T08:26:30.854Z,9.30
2023-03-06T08:28:02.576Z,9.85
2023-03-06T08:29:34.356Z,8.52
2023-03-06T08:31:21.189Z,11.25
2023-03-06T08:32:52.897Z,9.52
2023-03-06T08:34:25.648Z,8.95
2023-03-06T08:35:57.462Z,8.43
2023-03-06T08:37:29.315Z,10.32
2023-03-06T08:39:01.863Z,9.98
2023-03-06T08:40:33.617Z,10.43
2023-03-06T08:42:05.350Z,9.68
2023-03-06T08:43:37.091Z,9.18
2023-03-06T08:45:09.525Z,12.02
2023-03-06T08:46:42.105Z,11.48
2023-03-06T08:48:13.837Z,9.73
2023-03-06T08:49:45.596Z,10.57
2023-03-06T08:51:18.073Z,11.05
2023-03-06T08:52:49.773Z,10.95
2023-03-06T08:54:21.620Z,11.00
2023-03-06T08:55:53.394Z,9.88
2023-03-06T08:57:25.149Z,11.55
2023-03-06T08:58:58.358Z,12.10
2023-03-06T09:00:33.966Z,10.85
2023-03-06T09:02:07.712Z,11.98
2023-03-06T09:03:39.665Z,11.27
2023-03-06T09:05:11.666Z,10.48
2023-03-06T09:06:44.273Z,10.00
2023-03-06T09:08:16.692Z,11.13
2023-03-06T09:09:48.453Z,9.70
2023-03-06T09:11:22.098Z,9.55
2023-03-06T09:12:55.147Z,10.65
2023-03-06T09:14:27.036Z,12.23
2023-03-06T09:15:58.914Z,10.73
2023-03-06T09:17:30.651Z,11.38
2023-03-06T09:19:02.430Z,11.25
2023-03-06T09:20:34.432Z,11.68
2023-03-06T09:22:06.200Z,11.18
2023-03-06T09:23:39.631Z,10.38
2023-03-06T09:25:20.262Z,12.00
2023-03-06T09:26:52.054Z,11.55
2023-03-06T09:28:25.020Z,10.10
2023-03-06T09:29:57.109Z,11.40
2023-03-06T09:31:28.847Z,10.73
2023-03-06T09:33:00.565Z,10.85
2023-03-06T09:34:32.303Z,10.93
2023-03-06T09:36:05.547Z,10.75
2023-03-06T09:37:37.389Z,12.52
2023-03-06T09:39:09.386Z,11.05
2023-03-06T09:40:55.326Z,11.40
2023-03-06T09:42:28.953Z,13.30
2023-03-06T09:44:08.771Z,11.35
2023-03-06T09:45:43.129Z,11.70
2023-03-06T09:47:39.843Z,11.25
2023-03-06T09:49:48.883Z,10.90
2023-03-06T09:51:30.159Z,11.77
2023-03-06T09:53:37.992Z,11.40
2023-03-06T09:55:19.360Z,11.32
2023-03-06T10:00:04.392Z,11.60
2023-03-06T10:01:40.494Z,13.45
2023-03-06T10:03:36.346Z,12.35
2023-03-06T10:05:15.490Z,11.38
2023-03-06T10:06:50.371Z,13.63
2023-03-06T10:08:31.951Z,12.82
2023-03-06T10:10:06.896Z,13.13
2023-03-06T10:11:52.790Z,11.40
2023-03-06T10:13:39.386Z,11.48
2023-03-06T10:15:16.420Z,13.43
2023-03-06T10:16:48.604Z,12.93
2023-03-06T10:18:20.502Z,11.35
2023-03-06T10:19:52.706Z,12.77
2023-03-06T10:21:27.461Z,12.25
2023-03-06T10:23:25.033Z,13.40
2023-03-06T10:25:29.626Z,13.10
2023-03-06T10:27:15.743Z,12.15
2023-03-06T10:29:21.498Z,12.38
2023-03-06T10:31:18.066Z,12.15
2023-03-06T10:32:58.738Z,12.88
2023-03-06T10:34:37.218Z,13.93
2023-03-06T10:36:14.522Z,13.57
2023-03-06T10:37:46.816Z,13.10
2023-03-06T10:39:21.343Z,12.52
2023-03-06T10:41:11.538Z,11.90
2023-03-06T10:42:43.233Z,12.00
2023-03-06T10:44:14.904Z,12.00
2023-03-06T10:45:54.100Z,12.93
2023-03-06T10:47:38.309Z,15.30
2023-03-06T10:49:30.641Z,14.32
2023-03-06T10:51:20.936Z,11.63
2023-03-06T10:53:02.109Z,12.02
2023-03-06T10:54:37.728Z,12.60
2023-03-06T10:56:09.805Z,12.90
2023-03-06T10:57:41.555Z,12.90
2023-03-06T10:59:14.522Z,10.82
2023-03-06T11:00:46.552Z,13.65
2023-03-06T11:02:27.744Z,14.00
2023-03-06T11:04:22.225Z,13.85
2023-03-06T11:05:55.848Z,14.30
2023-03-06T11:07:34.923Z,13.20
2023-03-06T11:09:18.789Z,13.20
2023-03-06T11:11:03.180Z,13.00
2023-03-06T11:12:37.468Z,13.27
2023-03-06T11:14:22.355Z,12.50
2023-03-06T11:16:01.026Z,14.90
2023-03-06T11:17:35.711Z,14.52
2023-03-06T11:19:28.939Z,14.43
2023-03-06T11:21:03.679Z,14.52
2023-03-06T11:22:38.605Z,13.77
2023-03-06T11:24:19.964Z,15.63
2023-03-06T11:27:42.623Z,16.20
2023-03-06T11:29:28.509Z,12.88
2023-03-06T11:31:04.158Z,12.88
2023-03-06T11:33:08.401Z,14.25
2023-03-06T11:34:58.590Z,14.93
2023-03-06T11:36:37.966Z,12.10
2023-03-06T11:38:20.627Z,12.45
2023-03-06T11:40:02.650Z,13.38
2023-03-06T11:41:49.983Z,13.55
2023-03-06T11:43:49.862Z,13.50
2023-03-06T11:45:26.727Z,15.48
2023-03-06T11:47:18.500Z,11.98
2023-03-06T11:49:01.368Z,15.05
2023-03-06T11:50:41.882Z,13.35
2023-03-06T11:52:27.580Z,15.13
2023-03-06T11:54:00.640Z,15.35
2023-03-06T11:55:51.075Z,15.05
2023-03-06T11:57:31.631Z,14.25
2023-03-06T11:59:18.764Z,15.23
2023-03-06T12:01:05.060Z,15.48
2023-03-06T12:03:03.139Z,12.70
2023-03-06T12:04:54.059Z,16.38
2023-03-06T12:06:46.843Z,15.07
2023-03-06T12:09:06.601Z,13.60
2023-03-06T12:10:52.711Z,14.05
2023-03-06T12:12:44.234Z,15.57
2023-03-06T12:16:28.144Z,14.18
2023-03-06T12:18:22.131Z,15.20
2023-03-06T12:20:01.197Z,15.88
2023-03-06T12:21:53.939Z,15.35
2023-03-06T12:23:43.885Z,13.88
2023-03-06T12:25:27.513Z,14.10
2023-03-06T12:27:16.349Z,16.17
2023-03-06T12:28:59.782Z,14.77
2023-03-06T12:31:02.551Z,15.00
2023-03-06T12:32:36.800Z,13.32
2023-03-06T12:34:36.697Z,13.93
2023-03-06T12:36:23.689Z,15.07
2023-03-06T12:38:08.020Z,14.75
2023-03-06T12:39:54.889Z,14.05
2023-03-06T12:41:33.354Z,13.80
2023-03-06T12:43:50.322Z,12.82
2023-03-06T12:45:30.302Z,13.45
2023-03-06T12:47:24.266Z,12.60
2023-03-06T12:49:08.401Z,12.25
2023-03-06T12:50:44.504Z,13.05
2023-03-06T12:52:29.638Z,12.18
2023-03-06T12:54:03.186Z,12.80
2023-03-06T12:55:54.148Z,11.98
2023-03-06T12:57:26.226Z,11.18
2023-03-06T12:59:02.481Z,10.55
2023-03-06T13:00:34.359Z,11.20
2023-03-06T13:02:40.131Z,13.18
2023-03-06T13:04:36.801Z,12.10
2023-03-06T13:06:49.907Z,11.65
2023-03-06T13:08:40.835Z,10.85
2023-03-06T13:10:23.392Z,12.23
2023-03-06T13:12:14.551Z,12.02
2023-03-06T13:13:48.355Z,10.48
2023-03-06T13:15:42.774Z,10.60
2023-03-06T13:17:23.367Z,9.98
2023-03-06T13:19:16.302Z,12.68
2023-03-06T13:20:49.009Z,10.18
2023-03-06T13:22:28.308Z,10.10
2023-03-06T13:24:05.669Z,10.15
2023-03-06T13:25:47.926Z,11.77
2023-03-06T13:27:54.848Z,12.35
2023-03-06T13:29:38.452Z,9.05
2023-03-06T13:31:24.901Z,9.35
2023-03-06T13:32:58.499Z,9.00
2023-03-06T13:34:38.806Z,10.63
2023-03-06T13:36:21.107Z,10.10
2023-03-06T13:37:53.251Z,10.20
2023-03-06T13:39:24.968Z,9.98
2023-03-06T13:41:27.983Z,9.40
2023-03-06T13:43:12.598Z,10.40
2023-03-06T13:44:46.080Z,10.30
2023-03-06T13:46:29.938Z,9.75
2023-03-06T13:48:41.264Z,10.52
2023-03-06T13:49:53.600Z,11.20
2023-03-06T13:51:28.816Z,12.60
2023-03-06T13:53:03.197Z,10.88
2023-03-06T13:55:14.169Z,11.77
2023-03-06T13:56:51.723Z,12.45
2023-03-06T13:58:47.166Z,11.43
2023-03-06T14:00:33.645Z,11.85
2023-03-06T14:02:26.111Z,13.70
2023-03-06T14:04:27.299Z,12.00
2023-03-06T14:05:59.336Z,11.68
2023-03-06T14:07:33.639Z,12.70
2023-03-06T14:09:11.937Z,12.93
2023-03-06T14:10:45.169Z,13.00
2023-03-06T14:12:28.803Z,13.02
2023-03-06T14:14:00.734Z,14.27
2023-03-06T14:15:50.388Z,15.23
2023-03-06T14:17:30.272Z,13.10
2023-03-06T14:19:03.169Z,15.02
2023-03-06T14:20:48.752Z,12.93
2023-03-06T14:22:24.752Z,12.95
2023-03-06T14:24:02.410Z,14.05
2023-03-06T14:25:34.605Z,12.70
2023-03-06T14:27:06.937Z,13.48
2023-03-06T14:28:38.674Z,12.18
2023-03-06T14:30:17.226Z,11.38
2023-03-06T14:31:51.563Z,11.95
2023-03-06T14:33:32.090Z,11.18
2023-03-06T14:35:04.584Z,12.35
2023-03-06T14:36:51.077Z,11.77
2023-03-06T14:38:22.975Z,10.70
2023-03-06T14:39:56.201Z,14.40
2023-03-06T14:41:30.958Z,11.23
2023-03-06T14:43:23.240Z,12.10
2023-03-06T14:45:19.969Z,10.45
2023-03-06T14:46:57.555Z,12.13
2023-03-06T14:48:44.471Z,12.38
2023-03-06T14:50:28.203Z,12.02
2023-03-06T14:52:02.765Z,10.27
2023-03-06T14:53:35.167Z,10.73
2023-03-06T14:55:20.475Z,9.93
2023-03-06T14:56:59.859Z,10.05
2023-03-06T14:58:36.508Z,11.43
2023-03-06T15:00:17.457Z,10.52
2023-03-06T15:01:52.081Z,10.52
2023-03-06T15:03:56.372Z,16.05
2023-03-06T15:05:29.943Z,10.73
2023-03-06T15:07:05.072Z,11.02
2023-03-06T15:08:40.157Z,10.50
2023-03-06T15:10:26.685Z,9.35
2023-03-06T15:12:04.305Z,9.50
2023-03-06T15:13:36.184Z,9.55
2023-03-06T15:15:08.192Z,9.32
2023-03-06T15:16:40.069Z,7.90
2023-03-06T15:18:28.926Z,7.95
2023-03-06T15:20:01.506Z,7.95
2023-03-06T15:21:38.029Z,7.28
2023-03-06T15:23:19.159Z,11.55
2023-03-06T15:24:50.964Z,9.05
2023-03-06T15:26:34.587Z,8.57
2023-03-06T15:28:28.278Z,9.75
2023-03-06T15:30:26.352Z,9.40
2023-03-06T15:32:32.408Z,8.80
2023-03-06T15:34:06.900Z,8.70
2023-03-06T15:35:38.873Z,8.43
2023-03-06T15:37:27.822Z,7.82
2023-03-06T15:39:00.984Z,7.82
2023-03-06T15:40:33.113Z,9.18
2023-03-06T15:42:18.305Z,7.28
2023-03-06T15:43:50.088Z,6.80
2023-03-06T15:45:23.854Z,6.75
2023-03-06T15:47:06.606Z,5.78
2023-03-06T15:48:40.180Z,7.70
2023-03-06T15:50:19.562Z,8.77
2023-03-06T15:51:51.321Z,7.35
2023-03-06T15:53:23.301Z,7.07
2023-03-06T15:54:55.068Z,9.05
2023-03-06T15:56:30.080Z,8.50
2023-03-06T15:58:04.723Z,8.75
2023-03-06T15:59:44.120Z,8.18
2023-03-06T16:01:17.793Z,9.07
2023-03-06T16:02:49.535Z,11.48
2023-03-06T16:04:21.252Z,9.65
2023-03-06T16:05:53.276Z,8.80
2023-03-06T16:07:26.376Z,7.57
2023-03-06T16:08:59.121Z,8.50
2023-03-06T16:10:34.061Z,8.52
2023-03-06T16:12:06.461Z,6.35
2023-03-06T16:13:38.181Z,7.15
2023-03-06T16:15:19.415Z,7.20
2023-03-06T16:16:54.209Z,8.18
2023-03-06T16:18:26.012Z,6.47
2023-03-06T16:19:57.740Z,7.05
2023-03-06T16:21:29.522Z,7.28
2023-03-06T16:23:01.258Z,6.50
2023-03-06T16:24:33.046Z,7.38
2023-03-06T16:26:07.222Z,7.53
2023-03-06T16:27:38.974Z,7.57
2023-03-06T16:29:22.308Z,6.40
2023-03-06T16:30:54.030Z,6.50
2023-03-06T16:32:28.615Z,6.57
2023-03-06T16:34:00.558Z,5.75
2023-03-06T16:35:32.402Z,5.90
2023-03-06T16:37:04.126Z,5.28
2023-03-06T16:38:35.836Z,5.43
2023-03-06T16:40:41.109Z,6.75
2023-03-06T16:42:13.207Z,5.95
2023-03-06T16:43:44.942Z,6.28
2023-03-06T16:45:18.119Z,4.75
2023-03-06T16:46:50.461Z,5.05
2023-03-06T16:48:22.173Z,5.50
2023-03-06T16:49:57.986Z,6.75
2023-03-06T16:51:29.849Z,6.30
2023-03-06T16:53:01.622Z,5.90
2023-03-06T16:54:33.370Z,5.85
2023-03-06T16:56:05.350Z,6.18
2023-03-06T16:57:37.068Z,5.43
2023-03-06T16:59:09.903Z,6.10
2023-03-06T17:00:42.104Z,7.72
2023-03-06T17:02:13.941Z,7.38
2023-03-06T17:03:46.078Z,6.63
2023-03-06T17:05:18.730Z,9.65
2023-03-06T17:06:51.391Z,8.05
2023-03-06T17:08:23.210Z,7.55
2023-03-06T17:09:54.961Z,7.32
2023-03-06T17:11:27.175Z,6.25
2023-03-06T17:12:59.002Z,7.47
2023-03-06T17:14:33.471Z,6.63
2023-03-06T17:16:05.667Z,7.80
2023-03-06T17:17:37.707Z,8.60
2023-03-06T17:19:15.833Z,7.57
2023-03-06T17:20:51.899Z,8.18
2023-03-06T17:22:23.920Z,9.55
2023-03-06T17:23:56.338Z,8.20
2023-03-06T17:25:28.293Z,8.88
2023-03-06T17:27:00.166Z,9.52
2023-03-06T17:28:31.928Z,8.27
2023-03-06T17:30:05.482Z,9.23
2023-03-06T17:31:37.232Z,7.32
2023-03-06T17:33:08.928Z,11.27
2023-03-06T17:34:41.053Z,8.70
2023-03-06T17:36:14.636Z,7.63
2023-03-06T17:37:46.453Z,9.52
2023-03-06T17:39:18.143Z,6.85
2023-03-06T17:40:49.838Z,8.40
2023-03-06T17:42:21.562Z,8.18
2023-03-06T17:43:55.973Z,10.88
2023-03-06T17:45:29.608Z,8.57
2023-03-06T17:47:02.127Z,8.80
2023-03-06T17:48:34.390Z,11.35
2023-03-06T17:50:06.208Z,10.82
2023-03-06T17:51:38.598Z,11.15
2023-03-06T17:53:10.320Z,9.38
2023-03-06T17:54:42.009Z,10.27
2023-03-06T17:56:14.657Z,7.97
2023-03-06T17:57:46.359Z,8.77
2023-03-06T17:59:21.610Z,7.55
2023-03-06T18:00:54.294Z,9.50
2023-03-06T18:02:26.013Z,9.07
2023-03-06T18:03:58.229Z,11.90
2023-03-06T18:05:30.012Z,8.75
2023-03-06T18:07:01.792Z,9.35
2023-03-06T18:08:33.574Z,10.50
2023-03-06T18:10:06.133Z,10.68
2023-03-06T18:11:37.883Z,12.13
2023-03-06T18:13:10.341Z,9.88
2023-03-06T18:14:42.120Z,9.63
2023-03-06T18:16:16.535Z,9.40
2023-03-06T18:17:48.501Z,9.10
2023-03-06T18:19:20.264Z,10.07
2023-03-06T18:20:52.264Z,8.63
2023-03-06T18:22:23.992Z,9.60
2023-03-06T18:23:57.647Z,10.32
2023-03-06T18:25:32.513Z,9.55
2023-03-06T18:27:04.410Z,9.60
2023-03-06T18:28:36.127Z,9.52
2023-03-06T18:30:08.642Z,9.38
2023-03-06T18:31:42.405Z,8.38
2023-03-06T18:33:14.236Z,9.25
2023-03-06T18:34:46.462Z,10.18
2023-03-06T18:36:18.984Z,9.05
2023-03-06T18:37:50.773Z,10.48
2023-03-06T18:39:22.690Z,8.10
2023-03-06T18:40:54.453Z,9.00
2023-03-06T18:42:26.712Z,8.85
2023-03-06T18:44:00.387Z,10.68
2023-03-06T18:45:33.562Z,10.13
2023-03-06T18:47:05.703Z,9.80
2023-03-06T18:48:38.020Z,9.60
2023-03-06T18:50:12.511Z,9.75
2023-03-06T18:51:44.465Z,10.90
2023-03-06T18:53:20.103Z,8.70
2023-03-06T18:54:51.822Z,9.27
2023-03-06T18:56:23.833Z,10.63
2023-03-06T18:57:55.534Z,11.27
2023-03-06T18:59:27.466Z,9.25
2023-03-06T19:01:02.256Z,9.93
2023-03-06T19:02:34.145Z,10.68
2023-03-06T19:04:06.085Z,10.05
2023-03-06T19:05:42.319Z,10.38
2023-03-06T19:07:14.507Z,9.15
2023-03-06T19:08:46.272Z,10.63
2023-03-06T19:10:18.405Z,10.13
2023-03-06T19:11:50.142Z,10.48
2023-03-06T19:13:21.975Z,9.55
2023-03-06T19:14:53.698Z,10.38
2023-03-06T19:16:28.777Z,9.90
2023-03-06T19:18:01.136Z,10.05
2023-03-06T19:19:33.532Z,10.50
2023-03-06T19:21:17.607Z,10.45
2023-03-06T19:22:49.536Z,9.95
2023-03-06T19:24:21.383Z,9.20
2023-03-06T19:25:57.483Z,12.68
2023-03-06T19:27:29.220Z,10.68
2023-03-06T19:29:00.916Z,10.45
2023-03-06T19:30:32.826Z,10.73
2023-03-06T19:32:04.941Z,9.85
2023-03-06T19:33:37.974Z,9.80
2023-03-06T19:35:11.117Z,10.90
2023-03-06T19:36:42.831Z,9.25
2023-03-06T19:38:15.675Z,10.50
2023-03-06T19:39:47.381Z,10.40
2023-03-06T19:41:19.244Z,11.50
2023-03-06T19:42:50.992Z,11.50
2023-03-06T19:44:23.458Z,12.77
2023-03-06T19:45:55.696Z,11.82
2023-03-06T19:47:27.567Z,10.32
2023-03-06T19:49:01.748Z,11.40
2023-03-06T19:50:34.431Z,10.70
2023-03-06T19:52:09.094Z,11.52
2023-03-06T19:53:41.164Z,11.85
2023-03-06T19:55:13.125Z,11.73
2023-03-06T19:56:45.215Z,10.73
2023-03-06T19:58:17.403Z,10.82
2023-03-06T19:59:52.434Z,10.63
2023-03-06T20:01:26.082Z,10.57
2023-03-06T20:02:58.195Z,11.98
2023-03-06T20:04:34.639Z,10.30
2023-03-06T20:06:09.199Z,12.05
2023-03-06T20:07:41.178Z,11.43
2023-03-06T20:09:12.908Z,10.75
2023-03-06T20:10:44.791Z,10.60
2023-03-06T20:12:16.608Z,11.05
2023-03-06T20:13:48.894Z,10.15
2023-03-06T20:15:22.285Z,11.40
2023-03-06T20:16:54.931Z,11.75
2023-03-06T20:18:26.870Z,12.07
2023-03-06T20:19:58.609Z,12.65
2023-03-06T20:21:33.373Z,10.85
2023-03-06T20:23:05.753Z,11.63
2023-03-06T20:24:37.832Z,9.20
2023-03-06T20:26:12.622Z,12.73
2023-03-06T20:27:44.327Z,11.20
2023-03-06T20:29:16.110Z,9.98
2023-03-06T20:30:48.333Z,9.70
2023-03-06T20:32:20.217Z,12.15
2023-03-06T20:33:53.892Z,10.77
2023-03-06T20:35:25.787Z,10.98
2023-03-06T20:36:58.006Z,11.55
2023-03-06T20:38:29.965Z,11.10
2023-03-06T20:40:01.658Z,10.90
2023-03-06T20:41:33.708Z,12.18
2023-03-06T20:43:05.734Z,10.68
2023-03-06T20:44:37.472Z,9.65
2023-03-06T20:46:11.262Z,10.23
2023-03-06T20:47:47.312Z,11.07
2023-03-06T20:49:19.693Z,10.50
2023-03-06T20:51:02.772Z,10.68
2023-03-06T20:52:34.834Z,11.38
2023-03-06T20:54:08.827Z,9.13
2023-03-06T20:55:40.594Z,9.82
2023-03-06T20:57:12.404Z,9.55
2023-03-06T20:58:44.817Z,11.38
2023-03-06T21:00:18.118Z,11.73
2023-03-06T21:01:49.969Z,11.10